createdAt,value
2024-05-09T00:00:29.898Z,9.87
2024-05-09T00:01:20.668Z,9.89
2024-05-09T00:02:20.663Z,9.87
2024-05-09T00:03:20.605Z,9.89
2024-05-09T00:04:20.710Z,9.87
2024-05-09T00:05:20.610Z,9.87
2024-05-09T00:06:20.518Z,9.86
2024-05-09T00:07:20.509Z,9.83
2024-05-09T00:08:20.559Z,9.79
2024-05-09T00:09:20.478Z,9.72
2024-05-09T00:10:28.819Z,9.69
2024-05-09T00:11:20.821Z,9.61
2024-05-09T00:12:20.618Z,9.58
2024-05-09T00:13:20.435Z,9.58
2024-05-09T00:14:20.474Z,9.58
2024-05-09T00:15:20.407Z,9.57
2024-05-09T00:16:20.414Z,9.54
2024-05-09T00:17:20.504Z,9.56
2024-05-09T00:18:20.562Z,9.53
2024-05-09T00:19:20.584Z,9.51
2024-05-09T00:20:27.812Z,9.46
2024-05-09T00:21:20.380Z,9.42
2024-05-09T00:22:20.323Z,9.38
2024-05-09T00:23:20.355Z,9.31
2024-05-09T00:24:20.302Z,9.26
2024-05-09T00:25:20.301Z,9.23
2024-05-09T00:26:20.363Z,9.21
2024-05-09T00:27:20.299Z,9.18
2024-05-09T00:28:20.256Z,9.18
2024-05-09T00:29:20.273Z,9.18
2024-05-09T00:30:27.988Z,9.21
2024-05-09T00:31:20.256Z,9.23
2024-05-09T00:32:20.383Z,9.28
2024-05-09T00:33:20.568Z,9.28
2024-05-09T00:34:20.309Z,9.32
2024-05-09T00:35:20.216Z,9.31
2024-05-09T00:36:20.165Z,9.36
2024-05-09T00:37:20.188Z,9.42
2024-05-09T00:38:20.176Z,9.47
2024-05-09T00:39:20.142Z,9.48
2024-05-09T00:40:30.745Z,9.51
2024-05-09T00:41:20.207Z,9.50
2024-05-09T00:42:20.142Z,9.51
2024-05-09T00:43:20.102Z,9.51
2024-05-09T00:44:20.169Z,9.50
2024-05-09T00:45:20.091Z,9.51
2024-05-09T00:46:20.063Z,9.51
2024-05-09T00:47:20.357Z,9.51
2024-05-09T00:48:21.557Z,9.46
2024-05-09T00:49:20.142Z,9.40
2024-05-09T00:50:29.343Z,9.32
2024-05-09T00:51:20.105Z,9.32
2024-05-09T00:52:19.992Z,9.31
2024-05-09T00:53:20.062Z,9.31
2024-05-09T00:54:19.984Z,9.31
2024-05-09T00:55:19.959Z,9.35
2024-05-09T00:56:19.994Z,9.35
2024-05-09T00:57:19.957Z,9.36
2024-05-09T00:58:19.968Z,9.38
2024-05-09T00:59:19.953Z,9.42
2024-05-09T01:00:27.190Z,9.46
2024-05-09T01:01:19.986Z,9.47
2024-05-09T01:02:19.979Z,9.50
2024-05-09T01:03:20.377Z,9.50
2024-05-09T01:04:19.944Z,9.48
2024-05-09T01:05:19.884Z,9.46
2024-05-09T01:06:19.851Z,9.46
2024-05-09T01:07:19.839Z,9.46
2024-05-09T01:08:19.906Z,9.43
2024-05-09T01:09:19.814Z,9.36
2024-05-09T01:10:27.613Z,9.32
2024-05-09T01:11:19.947Z,9.28
2024-05-09T01:12:19.960Z,9.20
2024-05-09T01:13:19.802Z,9.04
2024-05-09T01:14:19.835Z,8.98
2024-05-09T01:15:19.741Z,8.89
2024-05-09T01:16:19.731Z,8.86
2024-05-09T01:17:19.826Z,8.83
2024-05-09T01:18:19.782Z,8.80
2024-05-09T01:19:19.863Z,8.80
2024-05-09T01:20:23.029Z,8.83
2024-05-09T01:21:19.774Z,8.84
2024-05-09T01:22:19.700Z,8.84
2024-05-09T01:23:19.712Z,8.86
2024-05-09T01:24:19.674Z,8.87
2024-05-09T01:25:19.641Z,8.92
2024-05-09T01:26:19.675Z,8.94
2024-05-09T01:27:19.631Z,8.94
2024-05-09T01:28:19.599Z,8.92
2024-05-09T01:29:19.664Z,8.89
2024-05-09T01:30:24.363Z,8.86
2024-05-09T01:31:19.563Z,8.83
2024-05-09T01:32:19.626Z,8.81
2024-05-09T01:33:19.754Z,8.79
2024-05-09T01:34:19.587Z,8.76
2024-05-09T01:35:19.546Z,8.77
2024-05-09T01:36:19.502Z,8.77
2024-05-09T01:37:19.490Z,8.77
2024-05-09T01:38:19.652Z,8.76
2024-05-09T01:39:19.473Z,8.77
2024-05-09T01:40:25.317Z,8.80
2024-05-09T01:41:19.533Z,8.81
2024-05-09T01:42:19.460Z,8.83
2024-05-09T01:43:19.439Z,8.81
2024-05-09T01:44:19.437Z,8.83
2024-05-09T01:45:19.399Z,8.81
2024-05-09T01:46:19.464Z,8.84
2024-05-09T01:47:19.576Z,8.84
2024-05-09T01:48:19.600Z,8.86
2024-05-09T01:49:19.634Z,8.89
2024-05-09T01:50:28.943Z,8.89
2024-05-09T01:51:19.359Z,8.89
2024-05-09T01:52:19.327Z,8.87
2024-05-09T01:53:19.363Z,8.89
2024-05-09T01:54:19.305Z,8.87
2024-05-09T01:55:19.306Z,8.84
2024-05-09T01:56:19.368Z,8.83
2024-05-09T01:57:19.288Z,8.80
2024-05-09T01:58:19.297Z,8.80
2024-05-09T01:59:19.299Z,8.79
2024-05-09T02:00:30.154Z,8.79
2024-05-09T02:01:19.261Z,8.77
2024-05-09T02:02:19.432Z,8.77
2024-05-09T02:03:19.456Z,8.77
2024-05-09T02:04:19.693Z,8.77
2024-05-09T02:05:19.358Z,8.79
2024-05-09T02:06:19.196Z,8.73
2024-05-09T02:07:19.191Z,8.73
2024-05-09T02:08:19.564Z,8.71
2024-05-09T02:09:19.135Z,8.68
2024-05-09T02:10:26.154Z,8.63
2024-05-09T02:11:19.265Z,8.58
2024-05-09T02:12:19.266Z,8.58
2024-05-09T02:13:19.118Z,8.53
2024-05-09T02:14:19.105Z,8.50
2024-05-09T02:15:19.100Z,8.50
2024-05-09T02:16:19.105Z,8.50
2024-05-09T02:17:19.196Z,8.48
2024-05-09T02:18:19.173Z,8.47
2024-05-09T02:19:19.196Z,8.50
2024-05-09T02:20:29.752Z,8.50
2024-05-09T02:21:19.032Z,8.52
2024-05-09T02:22:19.006Z,8.50
2024-05-09T02:23:19.049Z,8.50
2024-05-09T02:24:18.977Z,8.48
2024-05-09T02:25:18.989Z,8.47
2024-05-09T02:26:19.032Z,8.47
2024-05-09T02:27:18.942Z,8.48
2024-05-09T02:28:18.932Z,8.47
2024-05-09T02:29:19.120Z,8.44
2024-05-09T02:30:26.311Z,8.44
2024-05-09T02:31:18.909Z,8.44
2024-05-09T02:32:19.083Z,8.44
2024-05-09T02:33:19.142Z,8.41
2024-05-09T02:34:19.017Z,8.41
2024-05-09T02:35:18.916Z,8.37
2024-05-09T02:36:18.874Z,8.40
2024-05-09T02:37:18.835Z,8.38
2024-05-09T02:38:18.857Z,8.40
2024-05-09T02:39:18.822Z,8.40
2024-05-09T02:40:25.625Z,8.38
2024-05-09T02:41:18.880Z,8.37
2024-05-09T02:42:18.783Z,8.37
2024-05-09T02:43:18.765Z,8.33
2024-05-09T02:44:18.805Z,8.34
2024-05-09T02:45:18.737Z,8.34
2024-05-09T02:46:18.756Z,8.33
2024-05-09T02:47:18.756Z,8.34
2024-05-09T02:48:18.869Z,8.36
2024-05-09T02:49:18.877Z,8.30
2024-05-09T02:50:26.617Z,8.29
2024-05-09T02:51:18.719Z,8.30
2024-05-09T02:52:18.680Z,8.30
2024-05-09T02:53:18.719Z,8.30
2024-05-09T02:54:18.649Z,8.33
2024-05-09T02:55:18.626Z,8.36
2024-05-09T02:56:18.667Z,8.37
2024-05-09T02:57:18.614Z,8.36
2024-05-09T02:58:18.594Z,8.34
2024-05-09T02:59:18.741Z,8.34
2024-05-09T03:00:22.957Z,8.34
2024-05-09T03:01:18.598Z,8.34
2024-05-09T03:02:18.622Z,8.36
2024-05-09T03:03:18.793Z,8.37
2024-05-09T03:04:18.590Z,8.38
2024-05-09T03:05:18.595Z,8.40
2024-05-09T03:06:18.502Z,8.37
2024-05-09T03:07:20.191Z,8.36
2024-05-09T03:08:18.527Z,8.36
2024-05-09T03:09:18.473Z,8.33
2024-05-09T03:10:25.093Z,8.34
2024-05-09T03:11:18.490Z,8.33
2024-05-09T03:12:18.463Z,8.30
2024-05-09T03:13:18.455Z,8.33
2024-05-09T03:14:18.475Z,8.33
2024-05-09T03:15:18.432Z,8.30
2024-05-09T03:16:18.442Z,8.33
2024-05-09T03:17:18.594Z,8.36
2024-05-09T03:18:18.458Z,8.33
2024-05-09T03:19:18.586Z,8.30
2024-05-09T03:20:23.770Z,8.28
2024-05-09T03:21:18.409Z,8.26
2024-05-09T03:22:18.335Z,8.25
2024-05-09T03:23:18.370Z,8.25
2024-05-09T03:24:18.311Z,8.25
2024-05-09T03:25:18.323Z,8.23
2024-05-09T03:26:18.345Z,8.25
2024-05-09T03:27:18.296Z,8.22
2024-05-09T03:28:18.260Z,8.23
2024-05-09T03:29:18.323Z,8.25
2024-05-09T03:30:29.308Z,8.25
2024-05-09T03:31:18.302Z,8.26
2024-05-09T03:32:18.339Z,8.26
2024-05-09T03:33:20.008Z,8.28
2024-05-09T03:34:18.203Z,8.23
2024-05-09T03:35:18.207Z,8.23
2024-05-09T03:36:18.180Z,8.26
2024-05-09T03:37:18.162Z,8.23
2024-05-09T03:38:18.476Z,8.26
2024-05-09T03:39:18.134Z,8.29
2024-05-09T03:40:23.509Z,8.29
2024-05-09T03:41:18.139Z,8.30
2024-05-09T03:42:18.114Z,8.36
2024-05-09T03:43:18.130Z,8.36
2024-05-09T03:44:18.184Z,8.36
2024-05-09T03:45:18.062Z,8.37
2024-05-09T03:46:18.115Z,8.37
2024-05-09T03:47:18.127Z,8.36
2024-05-09T03:48:18.219Z,8.40
2024-05-09T03:49:18.220Z,8.40
2024-05-09T03:50:25.763Z,8.41
2024-05-09T03:51:18.025Z,8.41
2024-05-09T03:52:17.986Z,8.40
2024-05-09T03:53:18.089Z,8.37
2024-05-09T03:54:17.972Z,8.37
2024-05-09T03:55:17.975Z,8.37
2024-05-09T03:56:17.992Z,8.40
2024-05-09T03:57:17.957Z,8.40
2024-05-09T03:58:17.930Z,8.38
2024-05-09T03:59:17.983Z,8.40
2024-05-09T04:00:26.048Z,8.41
2024-05-09T04:01:17.921Z,8.41
2024-05-09T04:02:17.964Z,8.34
2024-05-09T04:03:18.126Z,8.29
2024-05-09T04:04:17.894Z,8.33
2024-05-09T04:05:17.867Z,8.33
2024-05-09T04:06:17.856Z,8.29
2024-05-09T04:07:17.780Z,8.26
2024-05-09T04:08:17.824Z,8.29
2024-05-09T04:09:17.738Z,8.28
2024-05-09T04:10:27.321Z,8.29
2024-05-09T04:11:17.971Z,8.28
2024-05-09T04:12:17.912Z,8.30
2024-05-09T04:13:17.772Z,8.33
2024-05-09T04:14:17.761Z,8.36
2024-05-09T04:15:17.731Z,8.36
2024-05-09T04:16:17.771Z,8.36
2024-05-09T04:17:17.741Z,8.34
2024-05-09T04:18:17.811Z,8.36
2024-05-09T04:19:17.947Z,8.34
2024-05-09T04:20:28.746Z,8.33
2024-05-09T04:21:17.655Z,8.33
2024-05-09T04:22:17.612Z,8.33
2024-05-09T04:23:17.711Z,8.36
2024-05-09T04:24:17.584Z,8.38
2024-05-09T04:25:17.575Z,8.40
2024-05-09T04:26:17.590Z,8.41
2024-05-09T04:27:17.567Z,8.43
2024-05-09T04:28:17.560Z,8.41
2024-05-09T04:29:17.586Z,8.44
2024-05-09T04:30:25.742Z,8.45
2024-05-09T04:31:17.524Z,8.47
2024-05-09T04:32:17.558Z,8.47
2024-05-09T04:33:17.710Z,8.52
2024-05-09T04:34:17.585Z,8.52
2024-05-09T04:35:17.635Z,8.55
2024-05-09T04:36:17.451Z,8.59
2024-05-09T04:37:17.482Z,8.59
2024-05-09T04:38:17.485Z,8.59
2024-05-09T04:39:17.409Z,8.62
2024-05-09T04:40:27.624Z,8.65
2024-05-09T04:41:17.470Z,8.66
2024-05-09T04:42:17.388Z,8.71
2024-05-09T04:43:17.604Z,8.74
2024-05-09T04:44:17.393Z,8.74
2024-05-09T04:45:17.342Z,8.74
2024-05-09T04:46:17.336Z,8.76
2024-05-09T04:47:17.496Z,8.76
2024-05-09T04:48:17.520Z,8.77
2024-05-09T04:49:17.533Z,8.77
2024-05-09T04:50:24.706Z,8.79
2024-05-09T04:51:17.320Z,8.80
2024-05-09T04:52:17.274Z,8.81
2024-05-09T04:53:17.687Z,8.81
2024-05-09T04:54:26.487Z,8.83
2024-05-09T04:55:17.251Z,8.86
2024-05-09T04:56:17.285Z,8.89
2024-05-09T04:57:17.235Z,8.89
2024-05-09T04:58:17.231Z,8.92
2024-05-09T04:59:17.220Z,8.94
2024-05-09T05:00:21.987Z,8.96
2024-05-09T05:01:17.263Z,8.99
2024-05-09T05:02:17.254Z,8.99
2024-05-09T05:03:17.679Z,9.02
2024-05-09T05:04:17.249Z,9.05
2024-05-09T05:05:17.327Z,9.08
2024-05-09T05:06:17.132Z,9.10
2024-05-09T05:07:17.119Z,9.14
2024-05-09T05:08:18.216Z,9.14
2024-05-09T05:09:17.157Z,9.17
2024-05-09T05:10:25.098Z,9.20
2024-05-09T05:11:17.144Z,9.21
2024-05-09T05:12:17.148Z,9.24
2024-05-09T05:13:18.508Z,9.28
2024-05-09T05:14:17.110Z,9.29
2024-05-09T05:15:17.007Z,9.32
2024-05-09T05:16:17.027Z,9.35
2024-05-09T05:17:17.036Z,9.40
2024-05-09T05:18:17.198Z,9.40
2024-05-09T05:19:17.790Z,9.43
2024-05-09T05:20:24.515Z,9.46
2024-05-09T05:21:17.005Z,9.48
2024-05-09T05:22:16.945Z,9.50
2024-05-09T05:23:17.010Z,9.54
2024-05-09T05:24:16.937Z,9.58
2024-05-09T05:25:16.899Z,9.58
2024-05-09T05:26:16.951Z,9.58
2024-05-09T05:27:16.884Z,9.64
2024-05-09T05:28:16.907Z,9.68
2024-05-09T05:29:20.203Z,9.69
2024-05-09T05:30:21.490Z,9.72
2024-05-09T05:31:16.921Z,9.74
2024-05-09T05:32:17.104Z,9.78
2024-05-09T05:33:17.006Z,9.78
2024-05-09T05:34:16.830Z,9.81
2024-05-09T05:35:16.808Z,9.84
2024-05-09T05:36:16.804Z,9.87
2024-05-09T05:37:16.788Z,9.87
2024-05-09T05:38:16.834Z,9.90
2024-05-09T05:39:16.794Z,9.96
2024-05-09T05:40:27.583Z,9.99
2024-05-09T05:41:16.776Z,10.04
2024-05-09T05:42:16.729Z,10.09
2024-05-09T05:43:16.726Z,10.09
2024-05-09T05:44:16.776Z,10.12
2024-05-09T05:45:16.819Z,10.12
2024-05-09T05:46:16.680Z,10.17
2024-05-09T05:47:16.735Z,10.18
2024-05-09T05:48:17.457Z,10.20
2024-05-09T05:49:16.765Z,10.23
2024-05-09T05:50:24.701Z,10.26
2024-05-09T05:51:16.670Z,10.33
2024-05-09T05:52:16.624Z,10.36
2024-05-09T05:53:16.723Z,10.36
2024-05-09T05:54:16.599Z,10.38
2024-05-09T05:55:24.524Z,10.38
2024-05-09T05:56:16.657Z,10.40
2024-05-09T05:57:16.581Z,10.41
2024-05-09T05:58:16.561Z,10.42
2024-05-09T05:59:16.615Z,10.44
2024-05-09T06:00:26.034Z,10.45
2024-05-09T06:01:16.603Z,10.48
2024-05-09T06:02:16.582Z,10.48
2024-05-09T06:03:16.626Z,10.51
2024-05-09T06:04:16.505Z,10.53
2024-05-09T06:05:16.491Z,10.55
2024-05-09T06:06:16.451Z,10.59
2024-05-09T06:07:16.441Z,10.61
2024-05-09T06:08:16.548Z,10.64
2024-05-09T06:09:16.418Z,10.66
2024-05-09T06:10:21.506Z,10.70
2024-05-09T06:11:16.498Z,10.70
2024-05-09T06:12:16.454Z,10.73
2024-05-09T06:13:16.366Z,10.76
2024-05-09T06:14:16.434Z,10.79
2024-05-09T06:15:16.407Z,10.82
2024-05-09T06:16:16.335Z,10.86
2024-05-09T06:17:16.473Z,10.91
2024-05-09T06:18:16.484Z,10.97
2024-05-09T06:19:16.376Z,10.99
2024-05-09T06:20:23.426Z,11.04
2024-05-09T06:21:16.516Z,11.06
2024-05-09T06:22:16.333Z,11.07
2024-05-09T06:23:16.408Z,11.14
2024-05-09T06:24:16.251Z,11.19
2024-05-09T06:25:16.290Z,11.24
2024-05-09T06:26:16.294Z,11.28
2024-05-09T06:27:16.215Z,11.28
2024-05-09T06:28:16.234Z,11.35
2024-05-09T06:29:16.231Z,11.39
2024-05-09T06:30:25.706Z,11.42
2024-05-09T06:31:16.185Z,11.44
2024-05-09T06:32:16.342Z,11.46
2024-05-09T06:33:16.888Z,11.46
2024-05-09T06:34:16.386Z,11.52
2024-05-09T06:35:16.167Z,11.55
2024-05-09T06:36:16.123Z,11.57
2024-05-09T06:37:16.107Z,11.57
2024-05-09T06:38:16.194Z,11.61
2024-05-09T06:39:16.083Z,11.64
2024-05-09T06:40:21.387Z,11.67
2024-05-09T06:41:16.114Z,11.70
2024-05-09T06:42:16.052Z,11.75
2024-05-09T06:43:18.314Z,11.80
2024-05-09T06:44:16.061Z,11.88
2024-05-09T06:45:16.056Z,11.86
2024-05-09T06:46:16.002Z,11.88
2024-05-09T06:47:16.029Z,11.91
2024-05-09T06:48:16.225Z,11.90
2024-05-09T06:49:16.176Z,11.95
2024-05-09T06:50:23.406Z,11.98
2024-05-09T06:51:16.029Z,11.99
2024-05-09T06:52:16.002Z,11.99
2024-05-09T06:53:16.071Z,12.01
2024-05-09T06:54:15.920Z,12.09
2024-05-09T06:55:16.004Z,12.13
2024-05-09T06:56:15.937Z,12.19
2024-05-09T06:57:15.883Z,12.20
2024-05-09T06:58:15.874Z,12.23
2024-05-09T06:59:15.927Z,12.24
2024-05-09T07:00:22.990Z,12.32
2024-05-09T07:01:15.866Z,12.39
2024-05-09T07:02:16.011Z,12.49
2024-05-09T07:03:17.905Z,12.57
2024-05-09T07:04:15.971Z,12.60
2024-05-09T07:05:15.966Z,12.62
2024-05-09T07:06:15.857Z,12.62
2024-05-09T07:07:15.803Z,12.70
2024-05-09T07:08:16.004Z,12.75
2024-05-09T07:09:15.791Z,12.78
2024-05-09T07:10:22.041Z,12.82
2024-05-09T07:11:15.782Z,12.83
2024-05-09T07:12:15.822Z,12.85
2024-05-09T07:13:16.070Z,12.93
2024-05-09T07:14:15.780Z,12.96
2024-05-09T07:15:15.700Z,13.07
2024-05-09T07:16:15.678Z,13.10
2024-05-09T07:17:15.758Z,13.12
2024-05-09T07:18:17.396Z,13.11
2024-05-09T07:19:15.823Z,13.15
2024-05-09T07:20:23.174Z,13.22
2024-05-09T07:21:15.773Z,13.23
2024-05-09T07:22:15.615Z,13.30
2024-05-09T07:23:16.067Z,13.41
2024-05-09T07:24:15.620Z,13.45
2024-05-09T07:25:15.591Z,13.48
2024-05-09T07:26:15.641Z,13.51
2024-05-09T07:27:15.559Z,13.54
2024-05-09T07:28:15.687Z,13.60
2024-05-09T07:29:15.603Z,13.64
2024-05-09T07:30:22.944Z,13.67
2024-05-09T07:31:15.520Z,13.73
2024-05-09T07:32:15.694Z,13.75
2024-05-09T07:33:15.863Z,13.75
2024-05-09T07:34:15.620Z,13.75
2024-05-09T07:35:15.676Z,13.77
2024-05-09T07:36:15.510Z,13.81
2024-05-09T07:37:15.482Z,13.85
2024-05-09T07:38:15.463Z,13.99
2024-05-09T07:39:15.465Z,14.07
2024-05-09T07:40:24.803Z,14.15
2024-05-09T07:41:15.473Z,14.24
2024-05-09T07:42:15.383Z,14.32
2024-05-09T07:43:15.427Z,14.32
2024-05-09T07:44:15.407Z,14.36
2024-05-09T07:45:30.117Z,14.39
2024-05-09T07:48:28.896Z,14.47
2024-05-09T07:52:22.584Z,14.51
2024-05-09T07:53:42.103Z,14.54
2024-05-09T07:53:53.428Z,14.68
2024-05-09T07:54:45.046Z,14.72
2024-05-09T07:55:45.141Z,14.78
2024-05-09T07:56:44.999Z,14.80
2024-05-09T07:57:44.939Z,14.77
2024-05-09T07:58:45.671Z,14.84
2024-05-09T07:59:44.895Z,14.84
2024-05-09T08:00:45.047Z,14.88
2024-05-09T08:01:45.008Z,14.89
2024-05-09T08:02:44.866Z,14.92
2024-05-09T08:03:45.055Z,14.94
2024-05-09T08:04:44.914Z,15.01
2024-05-09T08:05:44.855Z,15.02
2024-05-09T08:06:44.826Z,15.06
2024-05-09T08:07:44.770Z,15.09
2024-05-09T08:08:44.733Z,15.07
2024-05-09T08:09:44.753Z,15.07
2024-05-09T08:10:44.862Z,15.10
2024-05-09T08:11:44.800Z,15.14
2024-05-09T08:12:44.697Z,15.16
2024-05-09T08:13:44.766Z,15.14
2024-05-09T08:14:44.678Z,15.19
2024-05-09T08:15:44.971Z,15.19
2024-05-09T08:16:44.658Z,15.21
2024-05-09T08:17:44.811Z,15.25
2024-05-09T08:18:44.768Z,15.32
2024-05-09T08:19:44.713Z,15.41
2024-05-09T08:20:44.604Z,15.50
2024-05-09T08:21:44.662Z,15.53
2024-05-09T08:22:44.565Z,15.60
2024-05-09T08:23:44.558Z,15.68
2024-05-09T08:24:44.582Z,15.72
2024-05-09T08:25:44.540Z,15.75
2024-05-09T08:26:44.546Z,15.80
2024-05-09T08:27:44.533Z,15.84
2024-05-09T08:28:44.496Z,15.86
2024-05-09T08:29:44.549Z,15.89
2024-05-09T08:30:44.790Z,15.94
2024-05-09T08:31:44.713Z,16.04
2024-05-09T08:32:44.569Z,16.07
2024-05-09T08:33:44.677Z,16.07
2024-05-09T08:34:44.618Z,16.11
2024-05-09T08:35:44.442Z,16.11
2024-05-09T08:36:44.501Z,16.12
2024-05-09T08:37:44.503Z,16.12
2024-05-09T08:38:44.419Z,16.14
2024-05-09T08:39:44.414Z,16.12
2024-05-09T08:40:44.618Z,16.08
2024-05-09T08:41:44.391Z,16.02
2024-05-09T08:42:44.401Z,16.05
2024-05-09T08:43:44.368Z,16.05
2024-05-09T08:44:44.317Z,16.05
2024-05-09T08:45:45.433Z,16.08
2024-05-09T08:46:44.296Z,16.08
2024-05-09T08:47:44.394Z,16.15
2024-05-09T08:48:44.532Z,16.25
2024-05-09T08:49:44.317Z,16.31
2024-05-09T08:50:45.343Z,16.35
2024-05-09T08:51:44.290Z,16.35
2024-05-09T08:52:44.237Z,16.41
2024-05-09T08:53:44.211Z,16.43
2024-05-09T08:54:44.272Z,16.46
2024-05-09T08:55:44.669Z,16.43
2024-05-09T08:56:44.194Z,16.52
2024-05-09T08:57:44.212Z,16.64
2024-05-09T08:58:44.172Z,16.64
2024-05-09T08:59:44.184Z,16.68
2024-05-09T09:00:44.857Z,16.81
2024-05-09T09:01:44.325Z,16.82
2024-05-09T09:02:44.574Z,16.83
2024-05-09T09:03:44.310Z,16.93
2024-05-09T09:04:44.251Z,16.97
2024-05-09T09:05:44.129Z,16.98
2024-05-09T09:06:44.328Z,16.96
2024-05-09T09:07:44.064Z,16.91
2024-05-09T09:08:44.059Z,16.89
2024-05-09T09:09:44.320Z,16.86
2024-05-09T09:10:44.218Z,16.82
2024-05-09T09:11:44.068Z,16.86
2024-05-09T09:12:44.098Z,16.89
2024-05-09T09:13:43.997Z,16.89
2024-05-09T09:14:44.025Z,16.83
2024-05-09T09:15:44.070Z,16.81
2024-05-09T09:16:43.977Z,16.79
2024-05-09T09:17:44.062Z,16.81
2024-05-09T09:18:44.252Z,16.78
2024-05-09T09:19:44.030Z,16.79
2024-05-09T09:20:44.118Z,16.81
2024-05-09T09:21:44.022Z,16.78
2024-05-09T09:22:43.927Z,16.89
2024-05-09T09:23:43.946Z,16.96
2024-05-09T09:24:43.927Z,17.00
2024-05-09T09:25:43.889Z,17.04
2024-05-09T09:26:43.870Z,17.07
2024-05-09T09:27:43.931Z,17.11
2024-05-09T09:28:43.895Z,17.07
2024-05-09T09:29:43.843Z,17.03
2024-05-09T09:30:43.974Z,16.98
2024-05-09T09:31:43.797Z,16.98
2024-05-09T09:32:43.931Z,17.00
2024-05-09T09:33:44.136Z,17.00
2024-05-09T09:34:43.943Z,17.06
2024-05-09T09:35:43.883Z,17.11
2024-05-09T09:36:43.846Z,17.18
2024-05-09T09:37:43.806Z,17.25
2024-05-09T09:38:43.844Z,17.28
2024-05-09T09:39:43.779Z,17.31
2024-05-09T09:40:48.277Z,17.34
2024-05-09T09:41:43.688Z,17.38
2024-05-09T09:42:43.698Z,17.36
2024-05-09T09:43:43.696Z,17.33
2024-05-09T09:44:47.731Z,17.33
2024-05-09T09:45:43.917Z,17.31
2024-05-09T09:46:43.645Z,17.30
2024-05-09T09:47:43.819Z,17.36
2024-05-09T09:48:43.707Z,17.44
2024-05-09T09:49:43.694Z,17.49
2024-05-09T09:50:43.583Z,17.54
2024-05-09T09:51:43.744Z,17.58
2024-05-09T09:52:43.565Z,17.58
2024-05-09T09:53:43.583Z,17.59
2024-05-09T09:54:43.567Z,17.62
2024-05-09T09:55:43.581Z,17.66
2024-05-09T09:56:43.517Z,17.70
2024-05-09T09:57:43.599Z,17.71
2024-05-09T09:58:43.496Z,17.72
2024-05-09T09:59:43.531Z,17.74
2024-05-09T10:00:43.752Z,17.79
2024-05-09T10:01:43.558Z,17.82
2024-05-09T10:02:43.468Z,17.89
2024-05-09T10:03:43.664Z,17.92
2024-05-09T10:04:43.594Z,17.87
2024-05-09T10:05:46.301Z,17.78
2024-05-09T10:06:43.481Z,17.70
2024-05-09T10:07:43.429Z,17.59
2024-05-09T10:08:43.407Z,17.46
2024-05-09T10:09:43.448Z,17.37
2024-05-09T10:10:43.675Z,17.28
2024-05-09T10:11:49.097Z,17.23
2024-05-09T10:12:43.356Z,17.23
2024-05-09T10:13:43.362Z,17.18
2024-05-09T10:14:43.315Z,17.18
2024-05-09T10:15:43.390Z,17.16
2024-05-09T10:16:43.324Z,17.18
2024-05-09T10:17:43.464Z,17.18
2024-05-09T10:18:43.549Z,17.19
2024-05-09T10:19:43.344Z,17.19
2024-05-09T10:20:43.297Z,17.19
2024-05-09T10:21:43.329Z,17.31
2024-05-09T10:22:43.233Z,17.43
2024-05-09T10:23:43.228Z,17.58
2024-05-09T10:24:43.242Z,17.74
2024-05-09T10:25:43.236Z,17.79
2024-05-09T10:26:43.204Z,17.90
2024-05-09T10:27:43.209Z,17.96
2024-05-09T10:28:43.175Z,18.02
2024-05-09T10:29:43.162Z,18.07
2024-05-09T10:30:43.466Z,18.10
2024-05-09T10:31:43.256Z,18.10
2024-05-09T10:32:43.225Z,18.10
2024-05-09T10:33:43.187Z,18.08
2024-05-09T10:34:43.129Z,18.10
2024-05-09T10:35:43.087Z,18.12
2024-05-09T10:36:43.161Z,18.14
2024-05-09T10:37:43.064Z,18.14
2024-05-09T10:38:43.148Z,18.15
2024-05-09T10:39:43.135Z,18.15
2024-05-09T10:40:43.103Z,18.17
2024-05-09T10:41:43.019Z,18.23
2024-05-09T10:42:43.115Z,18.29
2024-05-09T10:43:43.043Z,18.42
2024-05-09T10:44:42.986Z,18.41
2024-05-09T10:45:43.033Z,18.39
2024-05-09T10:46:42.985Z,18.39
2024-05-09T10:47:43.073Z,18.41
2024-05-09T10:48:43.179Z,18.44
2024-05-09T10:49:42.971Z,18.47
2024-05-09T10:50:42.919Z,18.37
2024-05-09T10:51:42.981Z,18.32
2024-05-09T10:52:42.922Z,18.29
2024-05-09T10:53:42.970Z,18.26
2024-05-09T10:54:42.944Z,18.29
2024-05-09T10:55:42.883Z,18.36
2024-05-09T10:56:42.877Z,18.39
2024-05-09T10:57:42.851Z,18.44
2024-05-09T10:58:42.898Z,18.45
2024-05-09T10:59:42.838Z,18.48
2024-05-09T11:00:42.951Z,18.50
2024-05-09T11:01:42.996Z,18.50
2024-05-09T11:02:43.192Z,18.50
2024-05-09T11:03:43.159Z,18.52
2024-05-09T11:04:42.953Z,18.62
2024-05-09T11:05:43.151Z,18.65
2024-05-09T11:06:42.856Z,18.72
2024-05-09T11:07:42.759Z,18.75
2024-05-09T11:08:42.737Z,18.76
2024-05-09T11:09:42.788Z,18.81
2024-05-09T11:10:42.813Z,18.82
2024-05-09T11:11:42.782Z,18.81
2024-05-09T11:12:42.731Z,18.81
2024-05-09T11:13:42.672Z,18.87
2024-05-09T11:14:42.652Z,18.90
2024-05-09T11:15:42.691Z,18.92
2024-05-09T11:16:42.662Z,18.98
2024-05-09T11:17:42.732Z,18.98
2024-05-09T11:18:42.811Z,18.99
2024-05-09T11:19:42.781Z,18.99
2024-05-09T11:20:42.748Z,19.02
2024-05-09T11:21:42.709Z,19.00
2024-05-09T11:22:42.573Z,18.95
2024-05-09T11:23:42.606Z,18.91
2024-05-09T11:24:42.620Z,18.84
2024-05-09T11:25:42.526Z,18.73
2024-05-09T11:26:42.508Z,18.72
2024-05-09T11:27:42.621Z,18.73
2024-05-09T11:28:42.522Z,18.70
2024-05-09T11:29:42.479Z,18.66
2024-05-09T11:30:42.534Z,18.63
2024-05-09T11:31:42.536Z,18.69
2024-05-09T11:32:42.569Z,18.78
2024-05-09T11:33:42.571Z,18.92
2024-05-09T11:34:42.518Z,18.95
2024-05-09T11:35:42.433Z,18.98
2024-05-09T11:36:42.522Z,18.99
2024-05-09T11:37:42.394Z,19.02
2024-05-09T11:38:42.396Z,19.02
2024-05-09T11:39:42.394Z,18.98
2024-05-09T11:40:42.511Z,18.92
2024-05-09T11:41:42.355Z,18.91
2024-05-09T11:42:42.344Z,18.80
2024-05-09T11:43:42.346Z,18.70
2024-05-09T11:44:42.318Z,18.70
2024-05-09T11:45:42.352Z,18.81
2024-05-09T11:46:42.315Z,18.95
2024-05-09T11:47:42.508Z,19.00
2024-05-09T11:48:42.531Z,18.91
2024-05-09T11:49:42.416Z,18.84
2024-05-09T11:50:42.273Z,18.81
2024-05-09T11:51:42.298Z,18.78
2024-05-09T11:52:42.225Z,18.76
2024-05-09T11:53:42.215Z,18.76
2024-05-09T11:54:42.254Z,18.72
2024-05-09T11:55:42.216Z,18.72
2024-05-09T11:56:42.165Z,18.67
2024-05-09T11:57:42.187Z,18.72
2024-05-09T11:58:42.205Z,18.72
2024-05-09T11:59:42.144Z,18.70
2024-05-09T12:00:42.221Z,18.72
2024-05-09T12:01:42.225Z,18.73
2024-05-09T12:02:42.115Z,18.66
2024-05-09T12:03:42.314Z,18.75
2024-05-09T12:04:42.434Z,18.81
2024-05-09T12:05:42.275Z,18.85
2024-05-09T12:06:42.127Z,18.88
2024-05-09T12:07:42.072Z,18.91
2024-05-09T12:08:42.061Z,18.92
2024-05-09T12:09:42.060Z,18.95
2024-05-09T12:10:42.188Z,18.98
2024-05-09T12:11:42.075Z,19.04
2024-05-09T12:12:42.024Z,19.13
2024-05-09T12:13:41.998Z,19.22
2024-05-09T12:14:41.988Z,19.23
2024-05-09T12:15:42.016Z,19.29
2024-05-09T12:16:42.035Z,19.32
2024-05-09T12:17:42.051Z,19.32
2024-05-09T12:18:42.009Z,19.32
2024-05-09T12:19:42.035Z,19.32
2024-05-09T12:20:41.958Z,19.32
2024-05-09T12:21:41.911Z,19.31
2024-05-09T12:22:41.894Z,19.28
2024-05-09T12:23:41.896Z,19.22
2024-05-09T12:24:41.882Z,19.26
2024-05-09T12:25:41.887Z,19.37
2024-05-09T12:26:41.839Z,19.43
2024-05-09T12:27:41.890Z,19.44
2024-05-09T12:28:41.816Z,19.44
2024-05-09T12:29:41.802Z,19.48
2024-05-09T12:30:42.330Z,19.54
2024-05-09T12:31:41.809Z,19.58
2024-05-09T12:32:41.870Z,19.65
2024-05-09T12:33:41.844Z,19.71
2024-05-09T12:34:41.819Z,19.80
2024-05-09T12:35:44.366Z,19.88
2024-05-09T12:36:41.747Z,19.96
2024-05-09T12:37:41.720Z,20.01
2024-05-09T12:38:41.710Z,19.87
2024-05-09T12:39:41.764Z,19.71
2024-05-09T12:40:41.950Z,19.59
2024-05-09T12:41:41.684Z,19.41
2024-05-09T12:42:41.802Z,19.33
2024-05-09T12:43:41.654Z,19.33
2024-05-09T12:44:41.652Z,19.32
2024-05-09T12:45:41.719Z,19.33
2024-05-09T12:46:41.652Z,19.36
2024-05-09T12:47:41.673Z,19.36
2024-05-09T12:48:41.791Z,19.31
2024-05-09T12:49:41.657Z,19.37
2024-05-09T12:50:42.072Z,19.33
2024-05-09T12:51:41.632Z,19.36
2024-05-09T12:52:41.577Z,19.40
2024-05-09T12:53:41.551Z,19.43
2024-05-09T12:54:41.596Z,19.33
2024-05-09T12:55:48.650Z,19.22
2024-05-09T12:56:41.518Z,19.14
2024-05-09T12:57:41.571Z,19.13
2024-05-09T12:58:41.494Z,19.18
2024-05-09T12:59:41.528Z,19.13
2024-05-09T13:00:41.614Z,19.10
2024-05-09T13:01:41.508Z,19.14
2024-05-09T13:02:41.671Z,19.22
2024-05-09T13:03:41.621Z,19.32
2024-05-09T13:04:41.540Z,19.41
2024-05-09T13:05:41.948Z,19.59
2024-05-09T13:06:41.453Z,19.76
2024-05-09T13:07:41.380Z,19.91